createdAt,value
2018-07-31T00:02:21.559Z,5.83
2018-07-31T00:04:51.473Z,6.23
2018-07-31T00:07:20.455Z,7.67
2018-07-31T00:09:49.401Z,7.47
2018-07-31T00:12:18.584Z,4.50
2018-07-31T00:14:47.649Z,5.60
2018-07-31T00:17:16.817Z,5.57
2018-07-31T00:19:46.033Z,5.53
2018-07-31T00:22:15.301Z,6.57
2018-07-31T00:24:44.709Z,7.13
2018-07-31T00:27:13.818Z,5.60
2018-07-31T00:29:42.808Z,6.37
2018-07-31T00:32:12.127Z,5.80
2018-07-31T00:34:41.227Z,5.67
2018-07-31T00:37:10.288Z,7.50
2018-07-31T00:39:39.577Z,4.93
2018-07-31T00:42:08.605Z,7.50
2018-07-31T00:44:37.655Z,7.20
2018-07-31T00:47:06.855Z,11.07
2018-07-31T00:49:36.344Z,6.33
2018-07-31T00:52:05.465Z,7.33
2018-07-31T00:54:34.541Z,9.47
2018-07-31T00:57:03.697Z,6.20
2018-07-31T00:59:32.749Z,9.23
2018-07-31T01:02:01.838Z,10.90
2018-07-31T01:04:30.850Z,5.50
2018-07-31T01:06:59.721Z,10.13
2018-07-31T01:09:28.681Z,7.07
2018-07-31T01:11:57.812Z,7.70
2018-07-31T01:14:26.815Z,8.23
2018-07-31T01:16:56.006Z,7.57
2018-07-31T01:19:25.107Z,9.03
2018-07-31T01:21:54.201Z,7.40
2018-07-31T01:24:23.181Z,9.43
2018-07-31T01:26:52.529Z,7.93
2018-07-31T01:29:21.473Z,8.47
2018-07-31T01:31:50.433Z,6.57
2018-07-31T01:34:20.082Z,8.70
2018-07-31T01:36:49.028Z,10.10
2018-07-31T01:39:18.106Z,7.27
2018-07-31T01:41:47.224Z,7.63
2018-07-31T01:44:16.139Z,6.63
2018-07-31T01:46:45.351Z,10.50
2018-07-31T01:49:14.413Z,9.53
2018-07-31T01:51:43.545Z,11.70
2018-07-31T01:54:12.585Z,10.00
2018-07-31T01:56:41.594Z,8.80
2018-07-31T01:59:10.624Z,7.43
2018-07-31T02:01:39.663Z,9.70
2018-07-31T02:04:08.589Z,9.30
2018-07-31T02:06:37.556Z,9.47
2018-07-31T02:09:08.004Z,7.13
2018-07-31T02:11:37.300Z,7.27
2018-07-31T02:14:06.390Z,9.97
2018-07-31T02:16:35.578Z,7.13
2018-07-31T02:19:04.622Z,7.90
2018-07-31T02:21:33.773Z,9.27
2018-07-31T02:24:02.877Z,9.90
2018-07-31T02:26:31.838Z,6.43
2018-07-31T02:29:01.120Z,7.53
2018-07-31T02:31:30.204Z,7.17
2018-07-31T02:33:59.239Z,11.63
2018-07-31T02:36:28.462Z,9.87
2018-07-31T02:38:57.658Z,9.70
2018-07-31T02:41:27.065Z,8.83
2018-07-31T02:43:56.116Z,6.80
2018-07-31T02:46:25.221Z,11.20
2018-07-31T02:48:55.368Z,8.00
2018-07-31T02:51:24.670Z,7.57
2018-07-31T02:53:53.620Z,11.43
2018-07-31T02:56:22.815Z,11.87
2018-07-31T02:58:52.050Z,7.20
2018-07-31T03:01:21.330Z,8.70
2018-07-31T03:03:50.545Z,8.87
2018-07-31T03:06:19.727Z,6.37
2018-07-31T03:08:48.909Z,8.03
2018-07-31T03:11:18.536Z,5.67
2018-07-31T03:13:47.701Z,7.80
2018-07-31T03:16:16.901Z,6.63
2018-07-31T03:18:45.897Z,6.87
2018-07-31T03:21:14.886Z,4.93
2018-07-31T03:23:44.138Z,6.07
2018-07-31T03:26:13.023Z,6.90
2018-07-31T03:28:42.188Z,6.33
2018-07-31T03:31:11.301Z,10.77
2018-07-31T03:33:40.458Z,8.43
2018-07-31T03:36:10.091Z,4.17
2018-07-31T03:38:39.269Z,8.07
2018-07-31T03:41:08.444Z,7.97
2018-07-31T03:43:37.617Z,6.47
2018-07-31T03:46:06.750Z,6.00
2018-07-31T03:48:36.085Z,9.07
2018-07-31T03:51:05.032Z,10.37
2018-07-31T03:53:34.020Z,13.33
2018-07-31T03:56:02.931Z,9.17
2018-07-31T03:58:32.017Z,8.43
2018-07-31T04:01:01.153Z,7.80
2018-07-31T04:03:30.436Z,9.67
2018-07-31T04:05:59.502Z,11.93
2018-07-31T04:08:28.641Z,7.37
2018-07-31T04:10:57.602Z,9.53
2018-07-31T04:13:26.801Z,8.23
2018-07-31T04:15:55.874Z,6.07
2018-07-31T04:18:24.863Z,9.07
2018-07-31T04:20:53.993Z,8.27
2018-07-31T04:23:23.100Z,8.50
2018-07-31T04:25:52.062Z,7.83
2018-07-31T04:28:21.033Z,8.83
2018-07-31T04:30:50.149Z,8.73
2018-07-31T04:33:19.215Z,7.50
2018-07-31T04:35:48.356Z,6.83
2018-07-31T04:38:17.546Z,8.27
2018-07-31T04:40:46.509Z,8.27
2018-07-31T04:43:15.615Z,8.70
2018-07-31T04:45:44.902Z,6.87
2018-07-31T04:48:13.915Z,9.87
2018-07-31T04:50:42.878Z,7.37
2018-07-31T04:53:11.903Z,6.87
2018-07-31T04:55:41.017Z,7.03
2018-07-31T04:58:10.117Z,8.40
2018-07-31T05:00:39.159Z,11.57
2018-07-31T05:03:08.284Z,8.20
2018-07-31T05:05:37.478Z,8.37
2018-07-31T05:08:06.667Z,8.07
2018-07-31T05:10:36.083Z,11.07
2018-07-31T05:13:05.246Z,11.70
2018-07-31T05:15:34.433Z,11.93
2018-07-31T05:18:03.640Z,11.83
2018-07-31T05:20:32.623Z,9.70
2018-07-31T05:23:01.752Z,12.37
2018-07-31T05:25:30.713Z,14.27
2018-07-31T05:27:59.705Z,11.37
2018-07-31T05:30:28.722Z,9.73
2018-07-31T05:32:57.898Z,10.87
2018-07-31T05:35:33.157Z,11.40
2018-07-31T05:38:02.330Z,12.33
2018-07-31T05:40:31.514Z,10.10
2018-07-31T05:43:00.519Z,14.60
2018-07-31T05:45:29.823Z,8.83
2018-07-31T05:47:58.922Z,13.33
2018-07-31T05:50:28.021Z,12.77
2018-07-31T05:52:57.096Z,13.07
2018-07-31T05:55:26.115Z,11.43
2018-07-31T05:57:55.086Z,15.57
2018-07-31T06:00:24.294Z,12.10
2018-07-31T06:02:53.296Z,8.55
2018-07-31T06:05:22.148Z,11.48
2018-07-31T06:07:51.135Z,8.85
2018-07-31T06:10:20.164Z,9.00
2018-07-31T06:12:49.258Z,8.48
2018-07-31T06:15:18.838Z,13.18
2018-07-31T06:17:47.937Z,9.03
2018-07-31T06:20:17.443Z,12.40
2018-07-31T06:22:47.832Z,12.53
2018-07-31T06:25:16.775Z,11.88
2018-07-31T06:27:45.955Z,10.23
2018-07-31T06:30:15.534Z,12.70
2018-07-31T06:32:44.980Z,13.77
2018-07-31T06:35:13.961Z,11.80
2018-07-31T06:37:43.208Z,9.03
2018-07-31T06:40:12.145Z,12.43
2018-07-31T06:42:41.621Z,11.33
2018-07-31T06:45:10.789Z,16.57
2018-07-31T06:47:39.900Z,13.67
2018-07-31T06:50:08.953Z,17.10
2018-07-31T06:52:38.148Z,17.07
2018-07-31T06:55:07.628Z,12.33
2018-07-31T06:57:36.745Z,12.83
2018-07-31T07:00:06.341Z,13.23
2018-07-31T07:02:35.544Z,16.10
2018-07-31T07:05:04.730Z,15.63
2018-07-31T07:07:33.719Z,13.73
2018-07-31T07:10:02.678Z,17.57
2018-07-31T07:12:31.909Z,12.97
2018-07-31T07:15:01.066Z,13.73
2018-07-31T07:17:30.236Z,16.03
2018-07-31T07:19:59.402Z,17.70
2018-07-31T07:22:28.715Z,16.47
2018-07-31T07:24:57.858Z,16.43
2018-07-31T07:27:27.006Z,11.67
2018-07-31T07:29:56.053Z,14.17
2018-07-31T07:32:25.341Z,13.67
2018-07-31T07:34:54.509Z,14.50
2018-07-31T07:37:23.854Z,18.87
2018-07-31T07:39:53.121Z,15.67
2018-07-31T07:42:22.596Z,26.30
2018-07-31T07:44:52.184Z,15.72
2018-07-31T07:47:21.140Z,17.82
2018-07-31T07:49:50.246Z,15.35
2018-07-31T07:52:19.524Z,13.68
2018-07-31T07:54:48.537Z,13.43
2018-07-31T07:57:17.653Z,15.03
2018-07-31T07:59:46.769Z,16.52
2018-07-31T08:02:16.025Z,15.55
2018-07-31T08:04:45.098Z,19.10
2018-07-31T08:07:14.123Z,19.55
2018-07-31T08:09:43.146Z,18.12
2018-07-31T08:12:12.017Z,15.35
2018-07-31T08:14:41.419Z,16.07
2018-07-31T08:17:10.477Z,13.25
2018-07-31T08:19:39.622Z,14.07
2018-07-31T08:22:08.656Z,11.08
2018-07-31T08:24:37.910Z,13.72
2018-07-31T08:27:07.366Z,13.28
2018-07-31T08:29:36.459Z,14.70
2018-07-31T08:32:05.776Z,11.63
2018-07-31T08:34:34.981Z,13.80
2018-07-31T08:37:04.011Z,11.97
2018-07-31T08:39:33.241Z,14.05
2018-07-31T08:42:02.352Z,13.65
2018-07-31T08:44:31.591Z,19.67
2018-07-31T08:47:01.422Z,15.00
2018-07-31T08:49:31.048Z,9.60
2018-07-31T08:52:00.410Z,8.83
2018-07-31T08:54:29.663Z,8.70
2018-07-31T08:56:59.145Z,20.80
2018-07-31T08:59:28.343Z,9.75
2018-07-31T09:01:57.940Z,14.07
2018-07-31T09:04:27.067Z,11.75
2018-07-31T09:06:56.217Z,26.57
2018-07-31T09:09:25.769Z,9.90
2018-07-31T09:11:54.993Z,9.70
2018-07-31T09:14:24.141Z,10.43
2018-07-31T09:16:53.127Z,11.22
2018-07-31T09:19:22.205Z,6.90
2018-07-31T09:21:51.238Z,12.63
2018-07-31T09:24:20.346Z,7.60
2018-07-31T09:26:49.441Z,8.25
2018-07-31T09:29:18.441Z,12.37
2018-07-31T09:31:47.757Z,10.28
2018-07-31T09:34:17.229Z,10.68
2018-07-31T09:36:46.531Z,5.28
2018-07-31T09:39:16.064Z,5.30
2018-07-31T09:41:45.130Z,6.60
2018-07-31T09:44:14.110Z,5.00
2018-07-31T09:46:43.202Z,5.47
2018-07-31T09:49:12.579Z,7.83
2018-07-31T09:51:41.566Z,3.95
2018-07-31T09:54:10.634Z,4.95
2018-07-31T09:56:39.892Z,7.22
2018-07-31T09:59:08.856Z,7.65
2018-07-31T10:01:37.925Z,5.80
2018-07-31T10:04:06.951Z,5.65
2018-07-31T10:06:36.154Z,7.22
2018-07-31T10:09:08.478Z,9.53
2018-07-31T10:11:37.710Z,5.62
2018-07-31T10:14:06.693Z,5.92
2018-07-31T10:16:35.909Z,5.95
2018-07-31T10:19:05.457Z,5.65
2018-07-31T10:21:34.482Z,2.95
2018-07-31T10:24:04.333Z,10.25
2018-07-31T10:26:33.438Z,5.28
2018-07-31T10:29:02.645Z,8.53
2018-07-31T10:31:32.103Z,4.55
2018-07-31T10:34:01.396Z,5.55
2018-07-31T10:36:30.748Z,8.20
2018-07-31T10:39:00.029Z,6.00
2018-07-31T10:41:29.080Z,6.58
2018-07-31T10:43:58.099Z,5.30
2018-07-31T10:46:27.220Z,5.47
2018-07-31T10:48:56.552Z,3.70
2018-07-31T10:51:25.684Z,5.53
2018-07-31T10:53:54.787Z,5.30
2018-07-31T10:56:23.916Z,6.15
2018-07-31T10:58:52.469Z,3.87
2018-07-31T11:01:21.413Z,4.53
2018-07-31T11:03:50.595Z,4.90
2018-07-31T11:06:19.718Z,5.35
2018-07-31T11:08:48.730Z,4.25
2018-07-31T11:11:17.841Z,4.37
2018-07-31T11:13:47.264Z,5.25
2018-07-31T11:16:16.327Z,5.55
2018-07-31T11:18:45.445Z,3.90
2018-07-31T11:21:14.539Z,4.45
2018-07-31T11:23:43.602Z,3.60
2018-07-31T11:26:12.677Z,3.40
2018-07-31T11:28:41.933Z,3.75
2018-07-31T11:31:11.008Z,6.87
2018-07-31T11:33:40.044Z,10.45
2018-07-31T11:36:09.094Z,8.90
2018-07-31T11:38:38.170Z,5.45
2018-07-31T11:41:07.236Z,6.08
2018-07-31T11:43:36.646Z,8.53
2018-07-31T11:46:05.883Z,4.70
2018-07-31T11:48:35.028Z,7.53
2018-07-31T11:51:04.180Z,5.67
2018-07-31T11:53:32.755Z,5.92
2018-07-31T11:56:01.785Z,12.10
2018-07-31T11:58:30.964Z,5.00
2018-07-31T12:01:00.038Z,8.15
2018-07-31T12:03:29.103Z,3.77
2018-07-31T12:05:58.425Z,7.73
2018-07-31T12:08:27.627Z,4.00
2018-07-31T12:10:56.902Z,6.47
2018-07-31T12:13:25.942Z,7.08
2018-07-31T12:15:55.036Z,5.35
2018-07-31T12:18:24.373Z,4.95
2018-07-31T12:20:53.986Z,5.40
2018-07-31T12:23:23.699Z,2.87
2018-07-31T12:25:52.659Z,4.17
2018-07-31T12:28:23.468Z,4.97
2018-07-31T12:30:52.961Z,7.78
2018-07-31T12:33:22.492Z,7.50
2018-07-31T12:35:52.516Z,7.25
2018-07-31T12:38:22.078Z,9.45
2018-07-31T12:40:51.157Z,7.80
2018-07-31T12:43:20.215Z,11.25
2018-07-31T12:45:49.285Z,4.87
2018-07-31T12:48:18.288Z,7.55
2018-07-31T12:50:47.402Z,5.20
2018-07-31T12:53:16.751Z,6.30
2018-07-31T12:55:45.922Z,7.93
2018-07-31T12:58:14.956Z,6.80
2018-07-31T13:00:44.211Z,8.30
2018-07-31T13:03:13.258Z,9.83
2018-07-31T13:05:42.634Z,7.15
2018-07-31T13:08:11.781Z,5.17
2018-07-31T13:10:40.857Z,4.13
2018-07-31T13:13:09.899Z,6.90
2018-07-31T13:15:39.218Z,6.03
2018-07-31T13:18:07.779Z,7.03
2018-07-31T13:20:37.169Z,5.43
2018-07-31T13:23:06.246Z,4.40
2018-07-31T13:38:35.047Z,3.02
2018-07-31T13:41:04.119Z,7.10
2018-07-31T13:43:33.185Z,11.90
2018-07-31T13:46:02.350Z,15.10
2018-07-31T13:48:31.404Z,7.93
2018-07-31T13:51:00.604Z,7.43
2018-07-31T13:53:29.684Z,11.00
2018-07-31T13:55:58.902Z,19.73
2018-07-31T13:58:28.237Z,7.73
2018-07-31T14:00:57.490Z,12.23
2018-07-31T14:03:26.400Z,12.00
2018-07-31T14:05:55.549Z,3.23
2018-07-31T14:08:24.629Z,3.03
2018-07-31T14:10:53.851Z,6.40
2018-07-31T14:13:23.123Z,4.00
2018-07-31T14:15:52.339Z,4.10
2018-07-31T14:18:21.558Z,10.23
2018-07-31T14:20:50.941Z,7.77
2018-07-31T14:23:20.977Z,2.93
2018-07-31T14:25:50.150Z,2.77
2018-07-31T14:28:19.593Z,3.97
2018-07-31T14:30:48.960Z,6.10
2018-07-31T14:33:18.181Z,2.87
2018-07-31T14:35:47.186Z,4.67
2018-07-31T14:38:16.543Z,5.43
2018-07-31T14:40:45.541Z,3.67
2018-07-31T14:43:14.637Z,7.20
2018-07-31T14:45:44.420Z,3.10
2018-07-31T14:48:13.933Z,5.00
2018-07-31T14:50:43.236Z,3.07
2018-07-31T14:53:12.727Z,2.03
2018-07-31T14:55:42.076Z,3.77
2018-07-31T14:58:11.242Z,5.47
2018-07-31T15:00:40.440Z,4.07
2018-07-31T15:03:09.803Z,2.33
2018-07-31T15:05:39.011Z,3.67
2018-07-31T15:08:08.104Z,6.83
2018-07-31T15:10:37.168Z,2.03
2018-07-31T15:13:06.192Z,1.20
2018-07-31T15:15:35.419Z,4.17
2018-07-31T15:18:04.613Z,6.43
2018-07-31T15:20:33.609Z,3.83
2018-07-31T15:23:02.976Z,2.47
2018-07-31T15:25:32.641Z,4.20
2018-07-31T15:28:01.882Z,5.30
2018-07-31T15:30:32.560Z,3.53
2018-07-31T15:33:01.928Z,3.63
2018-07-31T15:35:31.256Z,1.73
2018-07-31T15:38:02.005Z,1.30
2018-07-31T15:40:31.271Z,2.00
2018-07-31T15:43:00.261Z,1.50
2018-07-31T15:45:29.669Z,3.67
2018-07-31T15:47:58.923Z,1.67
2018-07-31T15:50:28.641Z,3.60
2018-07-31T15:52:57.922Z,6.60
2018-07-31T15:55:27.062Z,3.53
2018-07-31T15:57:56.370Z,6.57
2018-07-31T16:00:25.592Z,2.83
2018-07-31T16:02:54.971Z,5.97
2018-07-31T16:05:24.643Z,3.17
2018-07-31T16:07:53.779Z,3.20
2018-07-31T16:10:23.061Z,2.53
2018-07-31T16:12:52.478Z,2.13
2018-07-31T16:15:21.551Z,1.90
2018-07-31T16:17:50.598Z,1.73
2018-07-31T16:20:19.997Z,2.93
2018-07-31T16:22:49.367Z,4.83
2018-07-31T16:25:18.472Z,4.03
2018-07-31T16:27:47.984Z,3.93
2018-07-31T16:30:17.236Z,1.67
2018-07-31T16:32:46.326Z,2.13
2018-07-31T16:35:15.410Z,4.10
2018-07-31T16:37:44.501Z,3.63
2018-07-31T16:40:13.611Z,2.13
2018-07-31T16:42:43.086Z,2.57
2018-07-31T16:45:12.601Z,2.90
2018-07-31T16:47:41.706Z,2.27
2018-07-31T16:50:11.018Z,5.97
2018-07-31T16:52:40.306Z,2.13
2018-07-31T16:55:09.504Z,2.80
2018-07-31T16:57:38.943Z,2.10
2018-07-31T17:00:07.923Z,2.40
2018-07-31T17:02:37.105Z,2.00
2018-07-31T17:05:06.202Z,2.00
2018-07-31T17:07:35.385Z,2.60
2018-07-31T17:10:04.626Z,1.83
2018-07-31T17:12:33.707Z,6.70
2018-07-31T17:15:03.069Z,2.47
2018-07-31T17:17:32.180Z,3.80
2018-07-31T17:20:01.300Z,4.67
2018-07-31T17:22:30.461Z,3.40
2018-07-31T17:24:59.794Z,2.33
2018-07-31T17:27:28.905Z,2.83
2018-07-31T17:29:58.165Z,3.37
2018-07-31T17:32:27.254Z,4.63
2018-07-31T17:34:56.459Z,4.10
2018-07-31T17:37:25.765Z,3.17
2018-07-31T17:39:55.148Z,3.07
2018-07-31T17:42:25.067Z,2.57
2018-07-31T17:44:54.148Z,3.40
2018-07-31T17:47:23.279Z,2.90
2018-07-31T17:49:52.347Z,3.03
2018-07-31T17:52:21.597Z,2.07
2018-07-31T17:54:51.030Z,3.67
2018-07-31T17:57:20.250Z,2.67
2018-07-31T17:59:49.600Z,2.47
2018-07-31T18:02:18.865Z,2.63
2018-07-31T18:04:47.787Z,5.20
2018-07-31T18:07:17.064Z,5.47
2018-07-31T18:09:46.333Z,5.30
2018-07-31T18:12:15.608Z,7.63
2018-07-31T18:14:45.135Z,8.87
2018-07-31T18:17:14.709Z,5.07
2018-07-31T18:19:43.796Z,4.63
2018-07-31T18:22:13.618Z,5.03
2018-07-31T18:24:42.994Z,4.23
2018-07-31T18:27:12.651Z,5.53
2018-07-31T18:29:42.079Z,3.83
2018-07-31T18:32:11.161Z,3.63
2018-07-31T18:34:40.422Z,4.63
2018-07-31T18:37:09.552Z,5.67
2018-07-31T18:39:38.594Z,6.67
2018-07-31T18:42:07.686Z,6.53
2018-07-31T18:44:37.225Z,7.63
2018-07-31T18:47:06.745Z,8.50
2018-07-31T18:49:35.928Z,6.00
2018-07-31T18:52:05.144Z,3.03
2018-07-31T18:54:34.313Z,7.47
2018-07-31T18:57:03.617Z,4.23
2018-07-31T18:59:32.615Z,12.43
2018-07-31T19:02:01.719Z,7.67
2018-07-31T19:04:31.007Z,9.90
2018-07-31T19:07:00.200Z,9.43
2018-07-31T19:09:29.640Z,3.57
2018-07-31T19:11:59.222Z,4.37
2018-07-31T19:14:28.337Z,7.57
2018-07-31T19:16:57.388Z,13.53
2018-07-31T19:19:26.609Z,6.97
2018-07-31T19:21:55.762Z,8.33
2018-07-31T19:24:24.775Z,11.37
2018-07-31T19:26:53.860Z,8.67
2018-07-31T19:29:23.156Z,12.27
2018-07-31T19:31:52.142Z,8.90
2018-07-31T19:34:21.239Z,12.27
2018-07-31T19:36:50.438Z,8.00
2018-07-31T19:39:19.693Z,9.60
2018-07-31T19:41:49.549Z,5.70
2018-07-31T19:44:18.805Z,7.97
2018-07-31T19:46:48.074Z,6.77
2018-07-31T19:49:17.246Z,11.23
2018-07-31T19:51:46.416Z,10.13
2018-07-31T19:54:15.745Z,9.97
2018-07-31T19:56:45.029Z,8.23
2018-07-31T19:59:14.142Z,9.50
2018-07-31T20:01:43.337Z,6.13
2018-07-31T20:04:13.149Z,4.73
2018-07-31T20:06:42.281Z,4.70
2018-07-31T20:09:15.057Z,6.87
2018-07-31T20:11:43.871Z,6.70
2018-07-31T20:14:13.383Z,7.23
2018-07-31T20:16:42.660Z,4.53
2018-07-31T20:19:12.033Z,5.80
2018-07-31T20:21:41.393Z,6.87
2018-07-31T20:24:11.005Z,7.43
2018-07-31T20:26:40.572Z,4.83
2018-07-31T20:29:10.038Z,8.27
2018-07-31T20:31:39.941Z,4.33
2018-07-31T20:34:09.243Z,4.77
2018-07-31T20:36:38.753Z,6.13
2018-07-31T20:39:09.491Z,5.67
2018-07-31T20:41:39.393Z,4.90
2018-07-31T20:44:09.365Z,4.77
2018-07-31T20:46:38.690Z,9.27
2018-07-31T20:49:08.193Z,5.43
2018-07-31T20:51:37.400Z,5.33
2018-07-31T21:07:06.101Z,7.47
2018-07-31T21:09:35.371Z,5.80
2018-07-31T21:12:04.474Z,4.63
2018-07-31T21:14:33.663Z,5.90
2018-07-31T21:17:03.633Z,4.10
2018-07-31T21:19:32.937Z,6.40
2018-07-31T21:22:02.170Z,5.33
2018-07-31T21:24:31.782Z,7.93
2018-07-31T21:27:00.751Z,4.63
2018-07-31T21:29:30.113Z,6.47
2018-07-31T21:31:59.452Z,5.80
2018-07-31T21:34:28.495Z,6.53
2018-07-31T21:36:57.541Z,6.83
2018-07-31T21:52:30.932Z,5.60
2018-07-31T21:54:59.957Z,5.93
2018-07-31T21:57:28.898Z,6.17
2018-07-31T21:59:58.907Z,5.33
2018-07-31T22:02:28.019Z,6.53
2018-07-31T22:04:56.985Z,5.67
2018-07-31T22:07:26.264Z,6.07
2018-07-31T22:09:55.809Z,7.47
2018-07-31T22:12:25.175Z,8.07
2018-07-31T22:14:54.592Z,5.73
2018-07-31T22:17:23.783Z,5.53
2018-07-31T22:19:53.023Z,7.43
2018-07-31T22:22:22.135Z,5.80
2018-07-31T22:24:51.370Z,9.30
2018-07-31T22:27:20.613Z,3.93
2018-07-31T22:29:49.574Z,8.53
2018-07-31T22:32:19.172Z,5.73
2018-07-31T22:34:48.702Z,4.57
2018-07-31T22:37:18.175Z,6.03
2018-07-31T22:42:22.160Z,4.63
2018-07-31T22:44:51.323Z,5.40
2018-07-31T22:47:20.637Z,4.70
2018-07-31T22:49:49.838Z,7.40
2018-07-31T22:52:18.876Z,3.97
2018-07-31T22:54:47.973Z,4.83
2018-07-31T22:57:17.185Z,4.97
2018-07-31T22:59:46.131Z,4.03
2018-07-31T23:02:15.538Z,4.83
2018-07-31T23:04:44.480Z,5.90
2018-07-31T23:07:13.458Z,5.90
2018-07-31T23:09:43.099Z,5.67
2018-07-31T23:12:12.361Z,3.73
2018-07-31T23:14:41.357Z,5.67
2018-07-31T23:17:10.577Z,4.40
2018-07-31T23:19:39.599Z,6.63
2018-07-31T23:22:08.751Z,6.07
2018-07-31T23:24:37.960Z,4.27
2018-07-31T23:27:07.366Z,4.40
2018-07-31T23:29:36.658Z,3.63
2018-07-31T23:32:05.874Z,3.10
2018-07-31T23:34:35.231Z,3.10
2018-07-31T23:37:04.201Z,4.80
2018-07-31T23:39:33.328Z,4.87
2018-07-31T23:42:02.395Z,7.33
2018-07-31T23:44:31.612Z,6.03
2018-07-31T23:47:00.611Z,7.00
2018-07-31T23:49:29.757Z,2.90
2018-07-31T23:51:58.957Z,2.93
2018-07-31T23:54:28.378Z,5.20
2018-07-31T23:56:58.343Z,6.13
2018-07-31T23:59:27.480Z,5.73
